sensor_id;sensor_type;location;lat;lon;timestamp;P1;durP1;ratioP1;P2;durP2;ratioP2
29030;SDS011;16122;50.236;11.734;2023-07-02T00:01:49;2.33;;;2.20;;
29030;SDS011;16122;50.236;11.734;2023-07-02T00:04:15;3.37;;;2.33;;
29030;SDS011;16122;50.236;11.734;2023-07-02T00:06:45;2.40;;;2.20;;
29030;SDS011;16122;50.236;11.734;2023-07-02T00:09:14;1.93;;;1.80;;
29030;SDS011;16122;50.236;11.734;2023-07-02T00:11:41;2.10;;;2.00;;
29030;SDS011;16122;50.236;11.734;2023-07-02T00:14:09;2.40;;;2.30;;
29030;SDS011;16122;50.236;11.734;2023-07-02T00:16:37;4.77;;;2.43;;
29030;SDS011;16122;50.236;11.734;2023-07-02T00:19:04;2.93;;;2.10;;
29030;SDS011;16122;50.236;11.734;2023-07-02T00:21:30;2.60;;;2.27;;
29030;SDS011;16122;50.236;11.734;2023-07-02T00:23:58;2.20;;;2.00;;
29030;SDS011;16122;50.236;11.734;2023-07-02T00:26:25;1.97;;;1.87;;
29030;SDS011;16122;50.236;11.734;2023-07-02T00:28:53;1.97;;;1.87;;
29030;SDS011;16122;50.236;11.734;2023-07-02T00:31:19;2.90;;;2.63;;
29030;SDS011;16122;50.236;11.734;2023-07-02T00:33:45;2.40;;;2.20;;
29030;SDS011;16122;50.236;11.734;2023-07-02T00:36:14;2.17;;;1.97;;
29030;SDS011;16122;50.236;11.734;2023-07-02T00:38:41;2.87;;;2.57;;
29030;SDS011;16122;50.236;11.734;2023-07-02T00:41:08;2.10;;;2.00;;
29030;SDS011;16122;50.236;11.734;2023-07-02T00:43:34;3.80;;;2.33;;
29030;SDS011;16122;50.236;11.734;2023-07-02T00:46:00;2.70;;;2.13;;
29030;SDS011;16122;50.236;11.734;2023-07-02T00:48:27;2.30;;;2.10;;
29030;SDS011;16122;50.236;11.734;2023-07-02T00:50:55;2.47;;;2.33;;
29030;SDS011;16122;50.236;11.734;2023-07-02T00:53:22;2.20;;;2.10;;
29030;SDS011;16122;50.236;11.734;2023-07-02T00:55:47;3.03;;;1.80;;
29030;SDS011;16122;50.236;11.734;2023-07-02T00:58:13;2.30;;;2.00;;
29030;SDS011;16122;50.236;11.734;2023-07-02T01:00:41;3.00;;;2.23;;
29030;SDS011;16122;50.236;11.734;2023-07-02T01:03:08;2.43;;;2.23;;
29030;SDS011;16122;50.236;11.734;2023-07-02T01:05:36;1.83;;;1.73;;
29030;SDS011;16122;50.236;11.734;2023-07-02T01:08:05;2.60;;;2.40;;
29030;SDS011;16122;50.236;11.734;2023-07-02T01:10:31;2.60;;;2.30;;
29030;SDS011;16122;50.236;11.734;2023-07-02T01:13:14;2.10;;;1.90;;
29030;SDS011;16122;50.236;11.734;2023-07-02T01:15:44;3.07;;;2.40;;
29030;SDS011;16122;50.236;11.734;2023-07-02T01:18:10;2.37;;;2.17;;
29030;SDS011;16122;50.236;11.734;2023-07-02T01:20:39;2.70;;;2.50;;
29030;SDS011;16122;50.236;11.734;2023-07-02T01:23:06;2.37;;;2.17;;
29030;SDS011;16122;50.236;11.734;2023-07-02T01:25:34;2.40;;;2.30;;
29030;SDS011;16122;50.236;11.734;2023-07-02T01:28:02;2.47;;;2.27;;
29030;SDS011;16122;50.236;11.734;2023-07-02T01:30:28;2.57;;;2.37;;
29030;SDS011;16122;50.236;11.734;2023-07-02T01:32:54;2.87;;;2.60;;
29030;SDS011;16122;50.236;11.734;2023-07-02T01:35:20;2.57;;;2.47;;
29030;SDS011;16122;50.236;11.734;2023-07-02T01:37:46;2.43;;;2.23;;
29030;SDS011;16122;50.236;11.734;2023-07-02T01:40:12;3.30;;;2.90;;
29030;SDS011;16122;50.236;11.734;2023-07-02T01:42:38;2.87;;;2.57;;
29030;SDS011;16122;50.236;11.734;2023-07-02T01:45:04;2.70;;;2.50;;
29030;SDS011;16122;50.236;11.734;2023-07-02T01:47:30;3.10;;;2.87;;
29030;SDS011;16122;50.236;11.734;2023-07-02T01:49:56;3.10;;;2.83;;
29030;SDS011;16122;50.236;11.734;2023-07-02T01:52:22;2.70;;;2.50;;
29030;SDS011;16122;50.236;11.734;2023-07-02T01:54:48;2.70;;;2.50;;
29030;SDS011;16122;50.236;11.734;2023-07-02T01:57:14;3.10;;;2.80;;
29030;SDS011;16122;50.236;11.734;2023-07-02T01:59:40;2.80;;;2.60;;
29030;SDS011;16122;50.236;11.734;2023-07-02T02:02:06;2.90;;;2.70;;
29030;SDS011;16122;50.236;11.734;2023-07-02T02:04:35;3.33;;;3.03;;
29030;SDS011;16122;50.236;11.734;2023-07-02T02:07:00;3.40;;;2.80;;
29030;SDS011;16122;50.236;11.734;2023-07-02T02:09:26;3.27;;;2.97;;
29030;SDS011;16122;50.236;11.734;2023-07-02T02:11:53;3.40;;;2.87;;
29030;SDS011;16122;50.236;11.734;2023-07-02T02:14:19;3.27;;;2.97;;
29030;SDS011;16122;50.236;11.734;2023-07-02T02:16:47;3.20;;;3.00;;
29030;SDS011;16122;50.236;11.734;2023-07-02T02:19:12;3.10;;;2.87;;
29030;SDS011;16122;50.236;11.734;2023-07-02T02:21:42;3.27;;;2.63;;
29030;SDS011;16122;50.236;11.734;2023-07-02T02:24:08;2.80;;;2.60;;
29030;SDS011;16122;50.236;11.734;2023-07-02T02:26:34;3.00;;;2.80;;
29030;SDS011;16122;50.236;11.734;2023-07-02T02:29:02;2.63;;;2.43;;
29030;SDS011;16122;50.236;11.734;2023-07-02T02:31:28;2.70;;;2.50;;
29030;SDS011;16122;50.236;11.734;2023-07-02T02:33:54;3.10;;;2.90;;
29030;SDS011;16122;50.236;11.734;2023-07-02T02:36:20;2.67;;;2.50;;
29030;SDS011;16122;50.236;11.734;2023-07-02T02:38:46;2.97;;;2.67;;
29030;SDS011;16122;50.236;11.734;2023-07-02T02:41:12;3.00;;;2.70;;
29030;SDS011;16122;50.236;11.734;2023-07-02T02:43:43;3.97;;;3.00;;
29030;SDS011;16122;50.236;11.734;2023-07-02T02:46:11;3.20;;;2.90;;
29030;SDS011;16122;50.236;11.734;2023-07-02T02:48:38;3.20;;;2.87;;
29030;SDS011;16122;50.236;11.734;2023-07-02T02:51:04;3.53;;;3.27;;
29030;SDS011;16122;50.236;11.734;2023-07-02T02:53:30;3.40;;;3.10;;
29030;SDS011;16122;50.236;11.734;2023-07-02T02:55:55;2.77;;;2.57;;
29030;SDS011;16122;50.236;11.734;2023-07-02T02:58:21;3.57;;;3.27;;
29030;SDS011;16122;50.236;11.734;2023-07-02T03:00:48;3.00;;;2.80;;
29030;SDS011;16122;50.236;11.734;2023-07-02T03:03:14;3.37;;;3.07;;
29030;SDS011;16122;50.236;11.734;2023-07-02T03:05:42;3.10;;;2.73;;
29030;SDS011;16122;50.236;11.734;2023-07-02T03:08:09;2.87;;;2.67;;
29030;SDS011;16122;50.236;11.734;2023-07-02T03:10:35;3.63;;;3.20;;
29030;SDS011;16122;50.236;11.734;2023-07-02T03:13:01;3.43;;;3.13;;
29030;SDS011;16122;50.236;11.734;2023-07-02T03:15:27;2.97;;;2.67;;
29030;SDS011;16122;50.236;11.734;2023-07-02T03:17:53;3.10;;;2.90;;
29030;SDS011;16122;50.236;11.734;2023-07-02T03:20:19;3.03;;;2.83;;
29030;SDS011;16122;50.236;11.734;2023-07-02T03:22:45;3.67;;;2.87;;
29030;SDS011;16122;50.236;11.734;2023-07-02T03:25:11;3.57;;;3.27;;
29030;SDS011;16122;50.236;11.734;2023-07-02T03:27:37;3.30;;;3.00;;
29030;SDS011;16122;50.236;11.734;2023-07-02T03:30:03;3.50;;;2.97;;
29030;SDS011;16122;50.236;11.734;2023-07-02T03:32:29;4.77;;;4.37;;
29030;SDS011;16122;50.236;11.734;2023-07-02T03:34:55;4.30;;;2.83;;
29030;SDS011;16122;50.236;11.734;2023-07-02T03:37:21;3.40;;;3.10;;
29030;SDS011;16122;50.236;11.734;2023-07-02T03:39:47;3.50;;;3.27;;
29030;SDS011;16122;50.236;11.734;2023-07-02T03:42:12;3.40;;;3.10;;
29030;SDS011;16122;50.236;11.734;2023-07-02T03:44:38;4.03;;;3.70;;
29030;SDS011;16122;50.236;11.734;2023-07-02T03:47:05;3.70;;;3.40;;
29030;SDS011;16122;50.236;11.734;2023-07-02T03:49:33;4.17;;;3.77;;
29030;SDS011;16122;50.236;11.734;2023-07-02T03:51:59;4.00;;;3.40;;
29030;SDS011;16122;50.236;11.734;2023-07-02T03:54:25;3.80;;;3.50;;
29030;SDS011;16122;50.236;11.734;2023-07-02T03:56:51;4.03;;;3.27;;
29030;SDS011;16122;50.236;11.734;2023-07-02T03:59:17;4.00;;;3.40;;
29030;SDS011;16122;50.236;11.734;2023-07-02T04:01:42;3.47;;;3.17;;
29030;SDS011;16122;50.236;11.734;2023-07-02T04:04:09;3.17;;;2.87;;
29030;SDS011;16122;50.236;11.734;2023-07-02T04:06:36;3.67;;;3.37;;
29030;SDS011;16122;50.236;11.734;2023-07-02T04:09:02;3.70;;;3.40;;
29030;SDS011;16122;50.236;11.734;2023-07-02T04:11:29;3.00;;;2.80;;
29030;SDS011;16122;50.236;11.734;2023-07-02T04:13:55;3.40;;;3.20;;
29030;SDS011;16122;50.236;11.734;2023-07-02T04:16:21;3.37;;;3.07;;
29030;SDS011;16122;50.236;11.734;2023-07-02T04:18:46;3.03;;;2.83;;
29030;SDS011;16122;50.236;11.734;2023-07-02T04:21:12;2.90;;;2.70;;
29030;SDS011;16122;50.236;11.734;2023-07-02T04:23:38;2.90;;;2.70;;
29030;SDS011;16122;50.236;11.734;2023-07-02T04:26:04;3.37;;;3.10;;
29030;SDS011;16122;50.236;11.734;2023-07-02T04:28:29;3.10;;;2.90;;
29030;SDS011;16122;50.236;11.734;2023-07-02T04:30:55;3.07;;;2.77;;
29030;SDS011;16122;50.236;11.734;2023-07-02T04:33:21;2.80;;;2.60;;
29030;SDS011;16122;50.236;11.734;2023-07-02T04:35:47;3.40;;;3.10;;
29030;SDS011;16122;50.236;11.734;2023-07-02T04:38:13;3.60;;;3.30;;
29030;SDS011;16122;50.236;11.734;2023-07-02T04:40:38;4.70;;;3.57;;
29030;SDS011;16122;50.236;11.734;2023-07-02T04:43:06;3.70;;;3.40;;
29030;SDS011;16122;50.236;11.734;2023-07-02T04:45:32;3.60;;;3.30;;
29030;SDS011;16122;50.236;11.734;2023-07-02T04:48:01;4.50;;;3.40;;
29030;SDS011;16122;50.236;11.734;2023-07-02T04:50:28;3.40;;;3.10;;
29030;SDS011;16122;50.236;11.734;2023-07-02T04:52:54;3.20;;;3.00;;
29030;SDS011;16122;50.236;11.734;2023-07-02T04:55:20;3.17;;;2.87;;
29030;SDS011;16122;50.236;11.734;2023-07-02T04:57:46;3.47;;;3.17;;
29030;SDS011;16122;50.236;11.734;2023-07-02T05:00:12;3.20;;;2.90;;
29030;SDS011;16122;50.236;11.734;2023-07-02T05:02:39;4.00;;;3.23;;
29030;SDS011;16122;50.236;11.734;2023-07-02T05:05:06;3.30;;;2.93;;
29030;SDS011;16122;50.236;11.734;2023-07-02T05:07:32;5.17;;;2.83;;
29030;SDS011;16122;50.236;11.734;2023-07-02T05:09:58;3.23;;;2.60;;
29030;SDS011;16122;50.236;11.734;2023-07-02T05:12:24;2.70;;;2.50;;
29030;SDS011;16122;50.236;11.734;2023-07-02T05:14:50;3.00;;;2.60;;
29030;SDS011;16122;50.236;11.734;2023-07-02T05:17:16;3.40;;;3.20;;
29030;SDS011;16122;50.236;11.734;2023-07-02T05:19:42;4.30;;;2.70;;
29030;SDS011;16122;50.236;11.734;2023-07-02T05:22:08;3.13;;;2.83;;
29030;SDS011;16122;50.236;11.734;2023-07-02T05:24:34;3.03;;;2.73;;
29030;SDS011;16122;50.236;11.734;2023-07-02T05:27:00;3.33;;;2.93;;
29030;SDS011;16122;50.236;11.734;2023-07-02T05:29:26;9.73;;;3.40;;
29030;SDS011;16122;50.236;11.734;2023-07-02T05:31:52;3.17;;;2.87;;
29030;SDS011;16122;50.236;11.734;2023-07-02T05:34:18;3.70;;;3.40;;
29030;SDS011;16122;50.236;11.734;2023-07-02T05:36:44;3.97;;;3.27;;
29030;SDS011;16122;50.236;11.734;2023-07-02T05:39:09;6.90;;;3.40;;
29030;SDS011;16122;50.236;11.734;2023-07-02T05:41:35;3.87;;;3.10;;
29030;SDS011;16122;50.236;11.734;2023-07-02T05:44:01;4.87;;;3.33;;
29030;SDS011;16122;50.236;11.734;2023-07-02T05:46:27;4.10;;;3.10;;
29030;SDS011;16122;50.236;11.734;2023-07-02T05:48:53;5.00;;;2.73;;
29030;SDS011;16122;50.236;11.734;2023-07-02T05:51:23;3.77;;;3.23;;
29030;SDS011;16122;50.236;11.734;2023-07-02T05:53:49;3.30;;;3.00;;
29030;SDS011;16122;50.236;11.734;2023-07-02T05:56:16;5.07;;;3.43;;
29030;SDS011;16122;50.236;11.734;2023-07-02T05:58:42;3.90;;;2.97;;
29030;SDS011;16122;50.236;11.734;2023-07-02T06:01:08;3.90;;;3.33;;
29030;SDS011;16122;50.236;11.734;2023-07-02T06:03:34;3.43;;;2.93;;
29030;SDS011;16122;50.236;11.734;2023-07-02T06:06:00;3.50;;;3.20;;
29030;SDS011;16122;50.236;11.734;2023-07-02T06:08:26;3.70;;;3.40;;
29030;SDS011;16122;50.236;11.734;2023-07-02T06:10:52;4.10;;;3.37;;
29030;SDS011;16122;50.236;11.734;2023-07-02T06:13:17;6.80;;;3.63;;
29030;SDS011;16122;50.236;11.734;2023-07-02T06:15:43;3.43;;;3.13;;
29030;SDS011;16122;50.236;11.734;2023-07-02T06:18:10;3.30;;;3.10;;
29030;SDS011;16122;50.236;11.734;2023-07-02T06:20:36;4.67;;;3.37;;
29030;SDS011;16122;50.236;11.734;2023-07-02T06:23:01;5.70;;;3.50;;
29030;SDS011;16122;50.236;11.734;2023-07-02T06:25:27;5.10;;;3.17;;
29030;SDS011;16122;50.236;11.734;2023-07-02T06:27:53;3.60;;;2.97;;
29030;SDS011;16122;50.236;11.734;2023-07-02T06:30:23;3.83;;;3.43;;
29030;SDS011;16122;50.236;11.734;2023-07-02T06:32:50;3.07;;;2.87;;
29030;SDS011;16122;50.236;11.734;2023-07-02T06:35:16;5.10;;;2.90;;
29030;SDS011;16122;50.236;11.734;2023-07-02T06:37:42;3.33;;;3.00;;
29030;SDS011;16122;50.236;11.734;2023-07-02T06:40:08;3.40;;;3.07;;
29030;SDS011;16122;50.236;11.734;2023-07-02T06:42:34;3.33;;;3.00;;
29030;SDS011;16122;50.236;11.734;2023-07-02T06:45:01;4.43;;;2.43;;
29030;SDS011;16122;50.236;11.734;2023-07-02T06:47:27;5.10;;;3.30;;
29030;SDS011;16122;50.236;11.734;2023-07-02T06:49:53;3.37;;;3.07;;
29030;SDS011;16122;50.236;11.734;2023-07-02T06:52:19;3.10;;;2.90;;
29030;SDS011;16122;50.236;11.734;2023-07-02T06:54:45;3.23;;;3.03;;
29030;SDS011;16122;50.236;11.734;2023-07-02T06:57:12;3.47;;;3.17;;
29030;SDS011;16122;50.236;11.734;2023-07-02T06:59:38;6.13;;;3.17;;
29030;SDS011;16122;50.236;11.734;2023-07-02T07:02:04;2.80;;;2.40;;
29030;SDS011;16122;50.236;11.734;2023-07-02T07:04:30;5.80;;;3.27;;
29030;SDS011;16122;50.236;11.734;2023-07-02T07:06:56;3.37;;;3.07;;
29030;SDS011;16122;50.236;11.734;2023-07-02T07:09:22;5.53;;;3.40;;
29030;SDS011;16122;50.236;11.734;2023-07-02T07:11:47;4.27;;;2.53;;
29030;SDS011;16122;50.236;11.734;2023-07-02T07:14:13;6.07;;;3.03;;
29030;SDS011;16122;50.236;11.734;2023-07-02T07:16:39;8.40;;;3.50;;
29030;SDS011;16122;50.236;11.734;2023-07-02T07:19:05;4.17;;;2.70;;
29030;SDS011;16122;50.236;11.734;2023-07-02T07:21:33;4.07;;;2.70;;
29030;SDS011;16122;50.236;11.734;2023-07-02T07:23:59;5.03;;;2.90;;
29030;SDS011;16122;50.236;11.734;2023-07-02T07:26:25;4.30;;;2.97;;
29030;SDS011;16122;50.236;11.734;2023-07-02T07:28:51;4.13;;;3.43;;
29030;SDS011;16122;50.236;11.734;2023-07-02T07:31:19;5.53;;;4.23;;
29030;SDS011;16122;50.236;11.734;2023-07-02T07:33:45;4.33;;;3.30;;
29030;SDS011;16122;50.236;11.734;2023-07-02T07:36:11;5.67;;;3.53;;
29030;SDS011;16122;50.236;11.734;2023-07-02T07:38:37;8.20;;;3.57;;
29030;SDS011;16122;50.236;11.734;2023-07-02T07:41:02;6.07;;;3.87;;
29030;SDS011;16122;50.236;11.734;2023-07-02T07:43:28;5.40;;;3.50;;
29030;SDS011;16122;50.236;11.734;2023-07-02T07:45:54;6.30;;;3.47;;
29030;SDS011;16122;50.236;11.734;2023-07-02T07:48:20;6.87;;;3.77;;
29030;SDS011;16122;50.236;11.734;2023-07-02T07:50:46;7.20;;;4.30;;
29030;SDS011;16122;50.236;11.734;2023-07-02T07:53:12;9.03;;;4.40;;
29030;SDS011;16122;50.236;11.734;2023-07-02T07:55:38;4.83;;;3.60;;
29030;SDS011;16122;50.236;11.734;2023-07-02T07:58:04;7.43;;;3.60;;
29030;SDS011;16122;50.236;11.734;2023-07-02T08:00:30;7.00;;;3.73;;
29030;SDS011;16122;50.236;11.734;2023-07-02T08:02:56;7.33;;;3.50;;
29030;SDS011;16122;50.236;11.734;2023-07-02T08:05:21;5.20;;;3.53;;
29030;SDS011;16122;50.236;11.734;2023-07-02T08:07:48;9.10;;;3.40;;
29030;SDS011;16122;50.236;11.734;2023-07-02T08:10:14;5.03;;;3.07;;
29030;SDS011;16122;50.236;11.734;2023-07-02T08:12:40;4.80;;;3.97;;
29030;SDS011;16122;50.236;11.734;2023-07-02T08:15:06;5.93;;;3.93;;
29030;SDS011;16122;50.236;11.734;2023-07-02T08:17:32;5.40;;;4.03;;
29030;SDS011;16122;50.236;11.734;2023-07-02T08:19:59;6.23;;;4.40;;
29030;SDS011;16122;50.236;11.734;2023-07-02T08:22:25;5.30;;;3.63;;
29030;SDS011;16122;50.236;11.734;2023-07-02T08:24:51;7.47;;;4.20;;
29030;SDS011;16122;50.236;11.734;2023-07-02T08:27:16;6.43;;;3.77;;
29030;SDS011;16122;50.236;11.734;2023-07-02T08:29:45;6.20;;;4.37;;
29030;SDS011;16122;50.236;11.734;2023-07-02T08:32:12;6.77;;;4.20;;
29030;SDS011;16122;50.236;11.734;2023-07-02T08:34:38;6.40;;;4.03;;
29030;SDS011;16122;50.236;11.734;2023-07-02T08:37:03;5.23;;;3.40;;
29030;SDS011;16122;50.236;11.734;2023-07-02T08:39:29;5.37;;;3.90;;
29030;SDS011;16122;50.236;11.734;2023-07-02T08:41:56;4.17;;;3.70;;
29030;SDS011;16122;50.236;11.734;2023-07-02T08:44:22;4.70;;;3.87;;
29030;SDS011;16122;50.236;11.734;2023-07-02T08:46:48;6.53;;;3.67;;
29030;SDS011;16122;50.236;11.734;2023-07-02T08:49:16;4.27;;;3.70;;
29030;SDS011;16122;50.236;11.734;2023-07-02T08:51:44;5.17;;;3.43;;
29030;SDS011;16122;50.236;11.734;2023-07-02T08:54:11;6.07;;;3.60;;
29030;SDS011;16122;50.236;11.734;2023-07-02T08:56:37;6.47;;;3.90;;
29030;SDS011;16122;50.236;11.734;2023-07-02T08:59:05;4.93;;;3.20;;
29030;SDS011;16122;50.236;11.734;2023-07-02T09:04:33;5.90;;;3.83;;
29030;SDS011;16122;50.236;11.734;2023-07-02T09:07:09;6.43;;;3.83;;
29030;SDS011;16122;50.236;11.734;2023-07-02T09:09:45;8.03;;;3.43;;
29030;SDS011;16122;50.236;11.734;2023-07-02T09:14:55;7.03;;;4.00;;
29030;SDS011;16122;50.236;11.734;2023-07-02T09:17:21;3.53;;;3.23;;
29030;SDS011;16122;50.236;11.734;2023-07-02T09:19:50;5.80;;;3.50;;
29030;SDS011;16122;50.236;11.734;2023-07-02T09:22:16;5.87;;;3.60;;
29030;SDS011;16122;50.236;11.734;2023-07-02T09:24:50;4.90;;;3.60;;
29030;SDS011;16122;50.236;11.734;2023-07-02T09:27:18;3.10;;;2.80;;
29030;SDS011;16122;50.236;11.734;2023-07-02T09:29:49;6.30;;;5.70;;
29030;SDS011;16122;50.236;11.734;2023-07-02T09:32:26;7.57;;;5.90;;
29030;SDS011;16122;50.236;11.734;2023-07-02T09:34:53;4.90;;;3.50;;
29030;SDS011;16122;50.236;11.734;2023-07-02T09:37:21;7.17;;;4.50;;
29030;SDS011;16122;50.236;11.734;2023-07-02T09:39:49;5.47;;;4.13;;
29030;SDS011;16122;50.236;11.734;2023-07-02T09:42:17;4.07;;;3.53;;
29030;SDS011;16122;50.236;11.734;2023-07-02T09:44:45;7.43;;;4.10;;
29030;SDS011;16122;50.236;11.734;2023-07-02T09:47:12;8.37;;;4.40;;
29030;SDS011;16122;50.236;11.734;2023-07-02T09:49:44;4.13;;;3.57;;
29030;SDS011;16122;50.236;11.734;2023-07-02T09:52:14;4.93;;;3.97;;
29030;SDS011;16122;50.236;11.734;2023-07-02T09:54:41;5.17;;;3.90;;
29030;SDS011;16122;50.236;11.734;2023-07-02T09:57:07;5.70;;;3.73;;
29030;SDS011;16122;50.236;11.734;2023-07-02T09:59:33;8.23;;;3.60;;
29030;SDS011;16122;50.236;11.734;2023-07-02T10:02:00;6.63;;;5.07;;
29030;SDS011;16122;50.236;11.734;2023-07-02T10:04:26;7.27;;;5.73;;
29030;SDS011;16122;50.236;11.734;2023-07-02T10:09:19;5.43;;;4.70;;
29030;SDS011;16122;50.236;11.734;2023-07-02T10:11:46;7.40;;;4.63;;
29030;SDS011;16122;50.236;11.734;2023-07-02T10:14:12;6.33;;;4.40;;
29030;SDS011;16122;50.236;11.734;2023-07-02T10:16:55;7.23;;;4.40;;
29030;SDS011;16122;50.236;11.734;2023-07-02T10:19:21;6.17;;;4.80;;
29030;SDS011;16122;50.236;11.734;2023-07-02T10:21:48;5.37;;;4.50;;
29030;SDS011;16122;50.236;11.734;2023-07-02T10:24:29;5.87;;;4.93;;
29030;SDS011;16122;50.236;11.734;2023-07-02T10:26:56;7.00;;;5.60;;
29030;SDS011;16122;50.236;11.734;2023-07-02T10:29:23;8.90;;;4.80;;
29030;SDS011;16122;50.236;11.734;2023-07-02T10:31:56;7.60;;;5.27;;
29030;SDS011;16122;50.236;11.734;2023-07-02T10:36:59;7.17;;;4.53;;
29030;SDS011;16122;50.236;11.734;2023-07-02T10:39:29;6.73;;;4.90;;
29030;SDS011;16122;50.236;11.734;2023-07-02T10:42:06;8.20;;;4.80;;
29030;SDS011;16122;50.236;11.734;2023-07-02T10:44:33;7.03;;;4.80;;
29030;SDS011;16122;50.236;11.734;2023-07-02T10:46:59;6.20;;;4.67;;
29030;SDS011;16122;50.236;11.734;2023-07-02T10:49:32;6.50;;;4.90;;
29030;SDS011;16122;50.236;11.734;2023-07-02T10:51:59;7.47;;;4.60;;
29030;SDS011;16122;50.236;11.734;2023-07-02T10:54:25;4.60;;;4.20;;
29030;SDS011;16122;50.236;11.734;2023-07-02T10:56:58;5.50;;;4.20;;
29030;SDS011;16122;50.236;11.734;2023-07-02T10:59:27;6.80;;;4.60;;
29030;SDS011;16122;50.236;11.734;2023-07-02T11:01:52;5.90;;;4.60;;
29030;SDS011;16122;50.236;11.734;2023-07-02T11:04:20;8.43;;;4.20;;
29030;SDS011;16122;50.236;11.734;2023-07-02T11:06:47;6.30;;;5.10;;
29030;SDS011;16122;50.236;11.734;2023-07-02T11:09:16;6.40;;;4.70;;
29030;SDS011;16122;50.236;11.734;2023-07-02T11:11:53;6.70;;;5.13;;
29030;SDS011;16122;50.236;11.734;2023-07-02T11:14:33;10.17;;;4.50;;
29030;SDS011;16122;50.236;11.734;2023-07-02T11:17:03;9.20;;;4.93;;
29030;SDS011;16122;50.236;11.734;2023-07-02T11:19:34;9.27;;;5.30;;
29030;SDS011;16122;50.236;11.734;2023-07-02T11:22:01;5.70;;;4.50;;
29030;SDS011;16122;50.236;11.734;2023-07-02T11:24:37;8.47;;;5.27;;
29030;SDS011;16122;50.236;11.734;2023-07-02T11:27:04;8.83;;;5.17;;
29030;SDS011;16122;50.236;11.734;2023-07-02T11:29:31;4.80;;;4.17;;
29030;SDS011;16122;50.236;11.734;2023-07-02T11:32:10;8.27;;;4.90;;
29030;SDS011;16122;50.236;11.734;2023-07-02T11:34:37;7.97;;;4.97;;
29030;SDS011;16122;50.236;11.734;2023-07-02T11:37:04;8.27;;;4.47;;
29030;SDS011;16122;50.236;11.734;2023-07-02T11:39:31;7.80;;;5.50;;
29030;SDS011;16122;50.236;11.734;2023-07-02T11:41:57;6.80;;;5.10;;
29030;SDS011;16122;50.236;11.734;2023-07-02T11:44:23;5.73;;;4.53;;
29030;SDS011;16122;50.236;11.734;2023-07-02T11:46:49;8.90;;;5.50;;
29030;SDS011;16122;50.236;11.734;2023-07-02T11:49:15;6.13;;;4.60;;
29030;SDS011;16122;50.236;11.734;2023-07-02T11:51:42;7.67;;;4.80;;
29030;SDS011;16122;50.236;11.734;2023-07-02T11:54:13;8.93;;;4.97;;
29030;SDS011;16122;50.236;11.734;2023-07-02T11:56:40;7.10;;;5.20;;
29030;SDS011;16122;50.236;11.734;2023-07-02T11:59:08;8.60;;;5.17;;
29030;SDS011;16122;50.236;11.734;2023-07-02T12:01:34;6.17;;;5.00;;
29030;SDS011;16122;50.236;11.734;2023-07-02T12:04:00;6.70;;;5.07;;
29030;SDS011;16122;50.236;11.734;2023-07-02T12:06:26;6.30;;;5.10;;
29030;SDS011;16122;50.236;11.734;2023-07-02T12:08:52;6.53;;;5.23;;
29030;SDS011;16122;50.236;11.734;2023-07-02T12:11:17;5.67;;;4.77;;
29030;SDS011;16122;50.236;11.734;2023-07-02T12:13:44;10.03;;;4.70;;
29030;SDS011;16122;50.236;11.734;2023-07-02T12:16:10;7.53;;;5.00;;
29030;SDS011;16122;50.236;11.734;2023-07-02T12:18:36;9.20;;;5.50;;
29030;SDS011;16122;50.236;11.734;2023-07-02T12:21:01;8.57;;;4.80;;
29030;SDS011;16122;50.236;11.734;2023-07-02T12:23:27;6.47;;;5.37;;
29030;SDS011;16122;50.236;11.734;2023-07-02T12:25:53;9.13;;;5.10;;
29030;SDS011;16122;50.236;11.734;2023-07-02T12:28:19;6.13;;;4.80;;
29030;SDS011;16122;50.236;11.734;2023-07-02T12:30:45;8.10;;;5.70;;
29030;SDS011;16122;50.236;11.734;2023-07-02T12:33:10;7.67;;;5.27;;
29030;SDS011;16122;50.236;11.734;2023-07-02T12:35:36;8.30;;;5.57;;
29030;SDS011;16122;50.236;11.734;2023-07-02T12:38:02;7.20;;;6.07;;
29030;SDS011;16122;50.236;11.734;2023-07-02T12:40:28;8.13;;;5.60;;
29030;SDS011;16122;50.236;11.734;2023-07-02T12:42:54;6.70;;;5.67;;
29030;SDS011;16122;50.236;11.734;2023-07-02T12:45:21;8.47;;;4.93;;
29030;SDS011;16122;50.236;11.734;2023-07-02T12:47:47;10.63;;;4.93;;
29030;SDS011;16122;50.236;11.734;2023-07-02T12:50:13;7.90;;;5.10;;
29030;SDS011;16122;50.236;11.734;2023-07-02T12:52:39;6.77;;;5.20;;
29030;SDS011;16122;50.236;11.734;2023-07-02T12:55:05;6.63;;;5.23;;
29030;SDS011;16122;50.236;11.734;2023-07-02T12:57:31;7.27;;;5.43;;
29030;SDS011;16122;50.236;11.734;2023-07-02T12:59:57;6.80;;;5.33;;
29030;SDS011;16122;50.236;11.734;2023-07-02T13:02:23;7.37;;;5.23;;
29030;SDS011;16122;50.236;11.734;2023-07-02T13:04:49;8.70;;;5.60;;
29030;SDS011;16122;50.236;11.734;2023-07-02T13:07:16;9.20;;;6.20;;
29030;SDS011;16122;50.236;11.734;2023-07-02T13:09:42;7.73;;;5.63;;
29030;SDS011;16122;50.236;11.734;2023-07-02T13:12:09;9.97;;;5.73;;
29030;SDS011;16122;50.236;11.734;2023-07-02T13:14:36;7.13;;;5.30;;
29030;SDS011;16122;50.236;11.734;2023-07-02T13:17:02;8.43;;;5.50;;
29030;SDS011;16122;50.236;11.734;2023-07-02T13:19:30;11.70;;;5.10;;
29030;SDS011;16122;50.236;11.734;2023-07-02T13:21:56;6.40;;;5.00;;
29030;SDS011;16122;50.236;11.734;2023-07-02T13:24:22;9.60;;;5.00;;
29030;SDS011;16122;50.236;11.734;2023-07-02T13:26:48;9.07;;;5.03;;
29030;SDS011;16122;50.236;11.734;2023-07-02T13:29:14;6.70;;;4.70;;
29030;SDS011;16122;50.236;11.734;2023-07-02T13:31:39;9.03;;;5.70;;
29030;SDS011;16122;50.236;11.734;2023-07-02T13:34:05;13.30;;;5.60;;
29030;SDS011;16122;50.236;11.734;2023-07-02T13:36:32;6.63;;;5.60;;
29030;SDS011;16122;50.236;11.734;2023-07-02T13:38:57;8.90;;;5.50;;
29030;SDS011;16122;50.236;11.734;2023-07-02T13:41:23;7.00;;;5.23;;
29030;SDS011;16122;50.236;11.734;2023-07-02T13:43:49;12.73;;;5.40;;
29030;SDS011;16122;50.236;11.734;2023-07-02T13:46:15;8.07;;;5.43;;
29030;SDS011;16122;50.236;11.734;2023-07-02T13:48:41;10.90;;;6.10;;
29030;SDS011;16122;50.236;11.734;2023-07-02T13:51:08;6.73;;;5.13;;
29030;SDS011;16122;50.236;11.734;2023-07-02T13:53:34;7.90;;;5.70;;
29030;SDS011;16122;50.236;11.734;2023-07-02T13:56:00;6.70;;;5.50;;
29030;SDS011;16122;50.236;11.734;2023-07-02T13:58:25;9.13;;;5.90;;
29030;SDS011;16122;50.236;11.734;2023-07-02T14:00:51;7.80;;;5.67;;
29030;SDS011;16122;50.236;11.734;2023-07-02T14:03:17;8.83;;;5.63;;
29030;SDS011;16122;50.236;11.734;2023-07-02T14:05:43;7.10;;;5.67;;
29030;SDS011;16122;50.236;11.734;2023-07-02T14:08:09;7.20;;;4.80;;
29030;SDS011;16122;50.236;11.734;2023-07-02T14:10:35;7.53;;;5.80;;
29030;SDS011;16122;50.236;11.734;2023-07-02T14:13:01;8.33;;;5.63;;
29030;SDS011;16122;50.236;11.734;2023-07-02T14:15:27;7.10;;;6.07;;
29030;SDS011;16122;50.236;11.734;2023-07-02T14:17:52;12.60;;;7.00;;
29030;SDS011;16122;50.236;11.734;2023-07-02T14:20:19;12.10;;;6.60;;
29030;SDS011;16122;50.236;11.734;2023-07-02T14:22:46;7.97;;;6.37;;
29030;SDS011;16122;50.236;11.734;2023-07-02T14:25:12;9.93;;;6.87;;
29030;SDS011;16122;50.236;11.734;2023-07-02T14:27:37;9.53;;;6.60;;
29030;SDS011;16122;50.236;11.734;2023-07-02T14:30:03;8.80;;;6.20;;
29030;SDS011;16122;50.236;11.734;2023-07-02T14:32:33;8.00;;;6.70;;
29030;SDS011;16122;50.236;11.734;2023-07-02T14:35:00;9.43;;;6.50;;
29030;SDS011;16122;50.236;11.734;2023-07-02T14:37:27;10.63;;;6.77;;
29030;SDS011;16122;50.236;11.734;2023-07-02T14:39:53;8.40;;;6.17;;
29030;SDS011;16122;50.236;11.734;2023-07-02T14:42:19;11.40;;;7.03;;